Aviation Digital Data Service (ADDS)

Output produced by METARs form (0114 UTC 05 July 2022)
found at http://www.aviationweather.gov/metar/data/
 
METAR text: KSAD 050051Z AUTO 34004KT 10SM CLR 31/16 A2992 RMK AO2 LTG DSNT N AND NE SLP076 T03110161
Conditions at: KSAD (SAFFORD , AZ, US) observed 0051 UTC 05 July 2022
Temperature: 31.1°C (88°F)
Dewpoint: 16.1°C (61°F) [RH = 41%]
Pressure (altimeter): 29.92 inches Hg (1013.3 mb)
[Sea-level pressure: 1007.6 mb]
Winds: from the NNW (340 degrees) at 5 MPH (4 knots; 2.1 m/s)
Visibility: 10 or more miles (16+ km)
Ceiling: at least 12,000 feet AGL
Clouds: sky clear below 12,000 feet AGL
Weather: automated observation with no human augmentation;
there may or may not be significant weather present at this time

METAR text: KSAD 042351Z AUTO 30006KT 10SM CLR 31/16 A2994 RMK AO2 LTG DSNT N AND SW SLP081 T03110161 10339 20300 55005
Conditions at: KSAD (SAFFORD , AZ, US) observed 2351 UTC 04 July 2022
Temperature: 31.1°C (88°F)
Dewpoint: 16.1°C (61°F) [RH = 41%]
Pressure (altimeter): 29.94 inches Hg (1014.0 mb)
[Sea-level pressure: 1008.1 mb]
Winds: from the WNW (300 degrees) at 7 MPH (6 knots; 3.1 m/s)
Visibility: 10 or more miles (16+ km)
Ceiling: at least 12,000 feet AGL
Clouds: sky clear below 12,000 feet AGL
Weather: automated observation with no human augmentation;
there may or may not be significant weather present at this time